Time;durP1;ratioP1;P1;durP2;ratioP2;P2;SDS_P1;SDS_P2;PMS_P1;PMS_P2;Temp;Humidity;BMP_temperature;BMP_pressure;BME280_temperature;BME280_humidity;BME280_pressure;Samples;Min_cycle;Max_cycle;Signal;HPM_P1;HPM_P2
2021/12/31 00:00:56;;;;;;;61.60;32.40;;;;;;;4.56;100.00;98970.58;3993404;88;21090;-89
2021/12/31 00:06:58;;;;;;;50.95;29.63;;;;;;;4.78;100.00;98970.72;3941036;90;21034;-87
2021/12/31 00:12:59;;;;;;;55.63;31.23;;;;;;;5.00;100.00;98982.50;3986920;88;21106;-87
2021/12/31 00:19:01;;;;;;;52.17;29.37;;;;;;;5.21;100.00;98991.33;4016766;88;21074;-86
2021/12/31 00:25:03;;;;;;;43.02;24.65;;;;;;;5.47;100.00;98990.41;3997243;88;21094;-87
2021/12/31 00:31:05;;;;;;;38.38;21.25;;;;;;;5.64;100.00;98992.06;3992376;88;21106;-90
2021/12/31 00:37:06;;;;;;;33.88;20.05;;;;;;;5.88;100.00;98990.69;4023867;88;21505;-89
2021/12/31 00:43:10;;;;;;;29.48;17.20;;;;;;;6.14;100.00;98989.69;3948892;89;21575;-87
2021/12/31 00:49:10;;;;;;;26.10;15.13;;;;;;;6.31;100.00;98998.94;3945154;89;21133;-87
2021/12/31 00:55:13;;;;;;;17.98;12.43;;;;;;;6.47;100.00;99010.63;3958488;89;21114;-87
2021/12/31 01:01:19;;;;;;;16.87;11.63;;;;;;;6.64;100.00;99008.17;3961766;89;21027;-88
2021/12/31 01:07:18;;;;;;;16.97;11.08;;;;;;;6.82;100.00;99012.94;3953866;89;21553;-87
2021/12/31 01:13:29;;;;;;;14.23;9.90;;;;;;;6.95;100.00;99006.85;3948152;89;21653;-87
2021/12/31 01:25:28;;;;;;;15.80;9.45;;;;;;;7.34;100.00;99012.69;3953134;89;22563;-86
2021/12/31 01:31:30;;;;;;;13.32;10.40;;;;;;;7.40;100.00;99015.35;3962708;89;21114;-86
2021/12/31 10:48:48;;;;;;;9.25;5.97;;;;;;;9.96;100.00;99134.31;4412852;79;22945;-87
2021/12/31 10:55:02;;;;;;;9.70;5.72;;;;;;;10.08;100.00;99123.98;4346152;80;21085;-87
2021/12/31 11:01:12;;;;;;;9.33;4.72;;;;;;;10.07;100.00;99106.55;4339742;80;21101;-88
2021/12/31 11:07:15;;;;;;;7.85;4.37;;;;;;;10.07;100.00;99112.02;4285489;81;21054;-86
2021/12/31 11:13:21;;;;;;;6.80;4.22;;;;;;;10.16;100.00;99103.79;4342526;81;21022;-87
2021/12/31 11:19:24;;;;;;;7.73;4.30;;;;;;;10.24;100.00;99098.60;4348307;80;21565;-88
2021/12/31 11:25:29;;;;;;;6.97;4.15;;;;;;;10.16;100.00;99099.69;4346535;81;21908;-88
2021/12/31 11:31:30;;;;;;;6.97;3.77;;;;;;;10.05;100.00;99098.71;4350780;81;21416;-89
2021/12/31 11:37:44;;;;;;;6.17;3.45;;;;;;;10.10;100.00;99099.00;4349247;80;20991;-88
2021/12/31 11:44:13;;;;;;;6.95;3.52;;;;;;;10.13;100.00;99092.80;4345910;81;21003;-88
2021/12/31 11:50:25;;;;;;;6.28;3.30;;;;;;;10.16;100.00;99084.64;4360321;81;21027;-89
2021/12/31 11:56:45;;;;;;;3.98;2.95;;;;;;;10.19;100.00;99068.85;4353911;81;20999;-89
2021/12/31 12:02:45;;;;;;;7.58;3.47;;;;;;;10.23;100.00;99067.51;4349837;81;21047;-87
2021/12/31 12:08:52;;;;;;;4.90;4.00;;;;;;;10.33;100.00;99063.57;4351275;80;21003;-89
2021/12/31 12:15:00;;;;;;;7.12;3.72;;;;;;;10.45;100.00;99057.85;4351149;81;21019;-90
2021/12/31 12:21:01;;;;;;;6.40;3.92;;;;;;;10.49;100.00;99050.46;4348472;81;20980;-89
2021/12/31 12:27:04;;;;;;;7.12;3.75;;;;;;;10.50;100.00;99046.58;4352601;80;20995;-88
2021/12/31 12:33:16;;;;;;;7.00;4.47;;;;;;;10.55;100.00;99044.09;4328985;81;21007;-88
2021/12/31 12:39:11;;;;;;;9.25;4.65;;;;;;;10.61;100.00;99042.02;4343214;81;21035;-87
2021/12/31 12:45:13;;;;;;;7.95;4.28;;;;;;;10.75;100.00;99048.23;4354440;81;20994;-88
2021/12/31 12:51:17;;;;;;;7.92;4.00;;;;;;;10.88;100.00;99054.43;4350492;81;20944;-89
2021/12/31 12:57:26;;;;;;;8.18;4.83;;;;;;;10.94;100.00;99050.78;4339016;81;21534;-89
2021/12/31 13:03:27;;;;;;;8.03;4.70;;;;;;;10.95;100.00;99048.24;4343126;80;20972;-89
2021/12/31 13:09:30;;;;;;;7.20;4.42;;;;;;;10.93;100.00;99047.85;4347581;80;20948;-88
2021/12/31 13:15:32;;;;;;;7.78;4.22;;;;;;;10.92;100.00;99035.30;4338620;81;21487;-87
2021/12/31 13:21:35;;;;;;;8.98;4.42;;;;;;;10.94;100.00;99017.92;4335855;81;20975;-88
2021/12/31 13:27:36;;;;;;;8.15;4.17;;;;;;;10.94;100.00;99025.56;4349229;81;20944;-87
2021/12/31 13:33:49;;;;;;;9.08;4.58;;;;;;;10.91;100.00;99026.89;4245183;82;21448;-90
2021/12/31 13:39:52;;;;;;;12.80;4.70;;;;;;;10.91;100.00;99030.42;4165861;84;21019;-87
2021/12/31 13:45:54;;;;;;;9.05;4.33;;;;;;;10.97;100.00;99021.27;4263435;83;21357;-88
2021/12/31 13:51:56;;;;;;;7.05;4.08;;;;;;;11.04;100.00;99036.39;4195104;83;20975;-88
2021/12/31 13:58:06;;;;;;;6.33;4.00;;;;;;;11.09;100.00;99030.00;4167479;83;21002;-88
2021/12/31 14:04:11;;;;;;;9.23;4.75;;;;;;;11.08;100.00;99032.55;4237314;83;21050;-88
2021/12/31 14:10:28;;;;;;;8.08;4.80;;;;;;;11.04;100.00;99035.02;4236150;83;21043;-88
2021/12/31 14:16:30;;;;;;;10.63;5.70;;;;;;;10.96;100.00;99041.02;4235085;83;21443;-88
2021/12/31 14:22:31;;;;;;;10.40;5.62;;;;;;;10.93;100.00;99044.52;4230492;83;21544;-88
2021/12/31 14:28:36;;;;;;;11.63;5.75;;;;;;;10.83;100.00;99043.04;4233264;83;21040;-88
2021/12/31 14:34:36;;;;;;;10.82;6.08;;;;;;;10.75;100.00;99037.28;4227609;83;20972;-88
2021/12/31 14:40:45;;;;;;;16.25;7.37;;;;;;;10.69;100.00;99040.95;4233636;83;21035;-87
2021/12/31 14:46:42;;;;;;;15.88;7.95;;;;;;;10.62;100.00;99050.43;4237786;83;21078;-89
2021/12/31 14:52:49;;;;;;;20.32;9.08;;;;;;;10.57;100.00;99052.73;4203717;84;20992;-89
2021/12/31 14:58:51;;;;;;;13.28;6.70;;;;;;;10.51;100.00;99061.03;4211009;83;21039;-89
2021/12/31 15:04:52;;;;;;;16.23;7.55;;;;;;;10.46;100.00;99057.28;4196918;83;20956;-88
2021/12/31 15:10:54;;;;;;;11.80;6.95;;;;;;;10.45;100.00;99057.85;4212646;84;21007;-87
2021/12/31 15:16:55;;;;;;;13.55;6.97;;;;;;;10.43;100.00;99041.61;4211059;84;20983;-89
2021/12/31 15:22:56;;;;;;;13.45;5.90;;;;;;;10.39;100.00;99039.39;4211515;83;20996;-89
2021/12/31 15:28:59;;;;;;;11.30;6.45;;;;;;;10.39;100.00;99038.02;4204144;84;20971;-89
2021/12/31 15:35:00;;;;;;;13.18;6.92;;;;;;;10.37;100.00;99033.49;4186982;83;20991;-88
2021/12/31 15:41:04;;;;;;;12.00;6.00;;;;;;;10.37;100.00;99044.44;4205122;84;20992;-89
2021/12/31 15:47:07;;;;;;;10.40;6.03;;;;;;;10.35;100.00;99044.05;4164024;84;160944;-87
2021/12/31 15:53:09;;;;;;;11.03;5.50;;;;;;;10.33;100.00;99044.98;4100852;85;21412;-87
2021/12/31 15:59:11;;;;;;;18.87;7.70;;;;;;;10.33;100.00;99037.58;4204558;83;21050;-88
2021/12/31 16:05:15;;;;;;;11.65;7.25;;;;;;;10.34;100.00;99038.34;4212194;84;21561;-87
2021/12/31 16:11:15;;;;;;;12.60;6.47;;;;;;;10.33;100.00;99026.63;4193191;84;21007;-88
2021/12/31 16:17:18;;;;;;;15.45;7.80;;;;;;;10.34;100.00;99027.40;4202213;83;21494;-88
2021/12/31 16:23:20;;;;;;;12.37;7.17;;;;;;;10.32;100.00;99020.93;4207438;83;21549;-88
2021/12/31 16:29:21;;;;;;;14.20;6.37;;;;;;;10.26;100.00;99010.11;4205827;84;20994;-88
2021/12/31 16:35:22;;;;;;;18.23;8.03;;;;;;;10.23;100.00;99012.80;4201898;84;20991;-87
2021/12/31 16:41:25;;;;;;;13.10;6.92;;;;;;;10.13;100.00;99006.62;4204452;83;20985;-88
2021/12/31 16:47:26;;;;;;;15.68;7.97;;;;;;;10.05;100.00;99001.63;4185588;83;21569;-88
2021/12/31 16:53:28;;;;;;;13.93;8.68;;;;;;;9.93;100.00;98999.69;4202263;84;21022;-87
2021/12/31 16:59:29;;;;;;;15.72;9.60;;;;;;;9.88;100.00;99006.24;4210421;84;21055;-87
2021/12/31 17:05:31;;;;;;;16.42;10.53;;;;;;;9.80;100.00;98996.96;4201920;83;20990;-88
2021/12/31 17:11:34;;;;;;;22.07;11.35;;;;;;;9.74;100.00;98997.08;4203946;83;21606;-88
2021/12/31 17:17:35;;;;;;;24.72;12.75;;;;;;;9.74;100.00;98994.34;4206684;83;20987;-88
2021/12/31 17:23:36;;;;;;;25.50;14.00;;;;;;;9.66;100.00;99004.96;4208851;83;21483;-89
2021/12/31 17:29:37;;;;;;;22.45;12.58;;;;;;;9.60;100.00;98992.17;4206168;84;20990;-87
2021/12/31 17:35:39;;;;;;;24.67;12.47;;;;;;;9.56;100.00;98987.25;4200848;83;21514;-86
2021/12/31 17:41:40;;;;;;;24.47;12.10;;;;;;;9.49;100.00;98973.46;4202812;83;21557;-88
2021/12/31 17:47:42;;;;;;;27.80;14.35;;;;;;;9.40;100.00;98962.81;4198469;83;21039;-88
2021/12/31 17:53:43;;;;;;;22.48;11.35;;;;;;;9.33;100.00;98964.66;4207838;84;21367;-87
2021/12/31 17:59:45;;;;;;;22.52;11.83;;;;;;;9.30;100.00;98957.96;4189587;83;21019;-89
2021/12/31 18:05:47;;;;;;;20.15;11.28;;;;;;;9.30;100.00;98954.47;4203201;83;20987;-87
2021/12/31 18:11:49;;;;;;;21.70;10.75;;;;;;;9.29;100.00;98969.25;4199297;84;21065;-88
2021/12/31 18:17:50;;;;;;;21.68;12.07;;;;;;;9.32;100.00;98973.42;4197632;84;21007;-87
2021/12/31 18:23:51;;;;;;;25.08;11.55;;;;;;;9.37;100.00;98970.38;4202074;84;21019;-88
2021/12/31 18:29:53;;;;;;;18.57;11.12;;;;;;;9.43;100.00;98972.20;4200042;83;21003;-89
2021/12/31 18:35:54;;;;;;;21.62;12.78;;;;;;;9.42;100.00;98963.81;4208541;83;21458;-87
2021/12/31 18:41:56;;;;;;;23.90;12.60;;;;;;;9.43;100.00;98959.34;4205789;83;20990;-89
2021/12/31 18:48:01;;;;;;;24.02;12.60;;;;;;;9.39;100.00;98954.98;4201757;84;21007;-88
2021/12/31 18:54:02;;;;;;;26.10;13.35;;;;;;;9.37;100.00;98952.62;4206327;84;21003;-88
2021/12/31 19:00:05;;;;;;;21.90;12.88;;;;;;;9.39;100.00;98936.66;4203225;84;20971;-88
2021/12/31 19:06:07;;;;;;;21.95;11.35;;;;;;;9.39;100.00;98932.56;4197074;84;21046;-88
2021/12/31 19:12:10;;;;;;;23.98;12.05;;;;;;;9.38;100.00;98928.23;4199368;84;21012;-88
2021/12/31 19:18:11;;;;;;;24.57;12.10;;;;;;;9.39;100.00;98931.77;4203678;83;21043;-89
2021/12/31 19:24:12;;;;;;;20.82;11.03;;;;;;;9.45;100.00;98943.95;4195043;83;21074;-90
2021/12/31 19:30:13;;;;;;;19.40;9.53;;;;;;;9.53;100.00;98936.86;4120439;84;20995;-88
2021/12/31 19:36:15;;;;;;;18.10;10.05;;;;;;;9.53;100.00;98925.13;4201613;83;21015;-88
2021/12/31 19:42:16;;;;;;;17.90;9.65;;;;;;;9.48;100.00;98922.71;4201101;84;21019;-87
2021/12/31 19:48:18;;;;;;;16.62;10.03;;;;;;;9.44;100.00;98928.12;4201991;83;21014;-87
2021/12/31 19:54:20;;;;;;;27.82;11.48;;;;;;;9.41;100.00;98924.76;4214793;83;21039;-88
2021/12/31 20:00:22;;;;;;;25.43;12.80;;;;;;;9.38;100.00;98931.56;4201758;83;21003;-88
2021/12/31 20:06:23;;;;;;;20.70;12.23;;;;;;;9.32;100.00;98924.24;4209454;83;20952;-88
2021/12/31 20:12:24;;;;;;;21.45;11.53;;;;;;;9.31;100.00;98927.34;4193924;83;20991;-88
2021/12/31 20:18:26;;;;;;;20.30;10.55;;;;;;;9.27;100.00;98938.81;4205560;84;21907;-88
2021/12/31 20:24:27;;;;;;;19.65;9.90;;;;;;;9.28;100.00;98941.74;4199638;84;21038;-88
2021/12/31 20:30:28;;;;;;;16.20;9.63;;;;;;;9.27;100.00;98934.11;4207667;83;21534;-88
2021/12/31 20:36:30;;;;;;;15.95;8.88;;;;;;;9.28;100.00;98938.44;4193760;83;21003;-88
2021/12/31 20:42:31;;;;;;;16.82;8.55;;;;;;;9.37;100.00;98937.59;4198973;84;20977;-87
2021/12/31 20:48:33;;;;;;;13.28;7.47;;;;;;;9.48;100.00;98930.34;4207967;84;21023;-88
2021/12/31 20:54:34;;;;;;;15.80;8.55;;;;;;;9.53;100.00;98936.06;4210737;83;20982;-87
2021/12/31 21:00:37;;;;;;;17.90;8.53;;;;;;;9.54;100.00;98925.33;4209586;83;21003;-86
2021/12/31 21:06:38;;;;;;;14.47;7.15;;;;;;;9.56;100.00;98918.92;4204421;84;21027;-88
2021/12/31 21:12:40;;;;;;;13.45;6.10;;;;;;;9.58;100.00;98924.22;4200226;84;20992;-87
2021/12/31 21:18:41;;;;;;;12.95;6.47;;;;;;;9.64;100.00;98915.14;4205957;84;21457;-87
2021/12/31 21:24:42;;;;;;;12.43;5.53;;;;;;;9.70;100.00;98919.69;4195292;84;21039;-89
2021/12/31 21:30:44;;;;;;;10.80;5.58;;;;;;;9.75;100.00;98918.00;4193727;84;21020;-86
2021/12/31 21:36:45;;;;;;;10.25;5.15;;;;;;;9.88;100.00;98920.11;4209071;83;21622;-87
2021/12/31 21:42:47;;;;;;;8.20;4.05;;;;;;;9.91;100.00;98917.23;4206869;84;20971;-89
2021/12/31 21:48:48;;;;;;;5.60;2.87;;;;;;;9.97;100.00;98918.48;4164189;83;21019;-88
2021/12/31 21:54:51;;;;;;;6.33;3.25;;;;;;;9.96;100.00;98920.41;4163512;85;21547;-88
2021/12/31 22:00:53;;;;;;;7.65;4.08;;;;;;;10.06;100.00;98918.97;4144275;84;21083;-89
2021/12/31 22:06:56;;;;;;;7.87;3.60;;;;;;;10.10;99.86;98923.34;4137276;85;21523;-88
2021/12/31 22:12:57;;;;;;;7.70;3.12;;;;;;;10.15;99.55;98916.19;4124192;85;20992;-88
2021/12/31 22:18:58;;;;;;;10.15;3.00;;;;;;;10.18;99.25;98922.28;4151055;85;21472;-88
2021/12/31 22:25:00;;;;;;;6.70;2.80;;;;;;;10.19;99.12;98928.54;4158940;85;21027;-88
2021/12/31 22:31:02;;;;;;;5.67;2.90;;;;;;;10.09;99.49;98933.30;4175142;85;20951;-88
2021/12/31 22:37:03;;;;;;;6.12;3.20;;;;;;;9.96;99.80;98932.72;4158953;85;21443;-88
2021/12/31 22:43:05;;;;;;;6.78;3.22;;;;;;;9.89;99.95;98928.55;4139372;85;20987;-87
2021/12/31 22:49:06;;;;;;;8.30;4.20;;;;;;;9.80;100.00;98937.62;4185562;82;21026;-88
2021/12/31 22:55:09;;;;;;;13.40;8.15;;;;;;;9.73;100.00;98939.44;4136627;84;20994;-89
2021/12/31 23:01:23;;;;;;;17.90;10.80;;;;;;;9.64;100.00;98930.16;4128277;84;21023;-88
2021/12/31 23:07:24;;;;;;;18.87;12.23;;;;;;;9.54;100.00;98934.89;4107717;85;21466;-88
2021/12/31 23:13:26;;;;;;;27.22;17.02;;;;;;;9.43;100.00;98938.84;4196499;83;20999;-88
2021/12/31 23:19:27;;;;;;;18.52;11.63;;;;;;;9.38;100.00;98930.97;4196560;83;21038;-87
2021/12/31 23:25:28;;;;;;;19.17;11.35;;;;;;;9.33;100.00;98935.97;4196857;83;21023;-88
2021/12/31 23:31:30;;;;;;;21.77;12.88;;;;;;;9.26;100.00;98944.84;4208029;83;20994;-88
2021/12/31 23:37:31;;;;;;;21.75;11.30;;;;;;;9.20;100.00;98939.48;4203381;83;21038;-89
2021/12/31 23:43:40;;;;;;;20.85;12.37;;;;;;;9.14;100.00;98940.16;4202141;83;21898;-89
2021/12/31 23:49:42;;;;;;;22.50;11.93;;;;;;;9.08;100.00;98943.76;4174431;84;21044;-88
2021/12/31 23:55:43;;;;;;;21.95;12.85;;;;;;;9.05;100.00;98943.13;4155540;84;20999;-88
